INFORMACIÓN METAR y TAF
METAR FOR GCGM
ADDS - METARS form results

(0145 UTC 25 March 2017)
Data provider http://aviationweather.gov/adds/metars/
 
METAR text: GCGM 250130Z AUTO 10006KT 050V120 9999 SCT043 OVC065 15/10 Q1019 RMK R09/10007KT 060V140 ARP/11008KT 060V130
Conditions at: GCGM (LA GOMERA ARPT , ES) observed 0130 UTC 25 March 2017
Temperature: 15.0°C (59°F)
Dewpoint: 10.0°C (50°F) [RH = 72%]
Pressure (altimeter): 30.09 inches Hg (1019.0 mb)
Winds: from the E (100 degrees) at 7 MPH (6 knots; 3.1 m/s)
Visibility: 6 or more miles (10+ km)
Ceiling: 6500 feet AGL
Clouds: scattered clouds at 4300 feet AGL
overcast cloud deck at 6500 feet AGL
Weather: no significant weather observed at this time

METAR text: GCGM 250100Z AUTO VRB01KT 9999 BKN060 16/07 Q1019 RMK R09/23003KT 150V320 ARP/VRB01KT
Conditions at: GCGM (LA GOMERA ARPT , ES) observed 0100 UTC 25 March 2017
Temperature: 16.0°C (61°F)
Dewpoint: 7.0°C (45°F) [RH = 55%]
Pressure (altimeter): 30.09 inches Hg (1019.0 mb)
Winds: variable direction winds at 1 MPH (1 knots; 0.5 m/s)
Visibility: 6 or more miles (10+ km)
Ceiling: 6000 feet AGL
Clouds: broken clouds at 6000 feet AGL
Weather: no significant weather observed at this time

 MAPA DE AEROPUERTO

 INFORMACIÓN DE PISTA
Pista 09 Longitud 4921 ft Ancho 98 ft
Elevación 716 ft Umbral desplazado 0 ft Rumbo de pista 81
Pista 27 Longitud 4921 ft Ancho 98 ft
Elevación 712 ft Umbral desplazado 0 ft Rumbo de pista 261

 FRECUANCIAS DEL AEROPUERTO
Tipo GND Nombre GND Frecuencia 121.7 MHZ
Tipo TWR Nombre TWR Frecuencia 118.4 MHZ

 RADIO AYUDAS DEL AEROPUERTO
Tipo VOR-DME Nombre La Gomera Frecuencia 116000 KHZ



Nuestro objetivo, educar a través de la simulación aérea y las redes de vuelo on line la cultura aeronáutica y el conocimiento técnico y operativo de volar un avión comercial; Ayudar en la formación de personas y o profesionales de aquellos que desea llegar a ser piloto privado o de líneas aéreas, militar, controlador aéreo, o conocer el mundo del tráfico aéreo, la simulación aérea, el vuelo, y todo lo referente con la aeronáutica.

Copyright 2006 - 2015
Clickair-Va desde 2006 son marcas registradas con permiso de Vueling S.A
Patrocinado por ACAE
Los foros de Clickair VA son foros privados para los miembros de la VA

Powered by Virtual Airlines Manager